createdAt,value
2022-10-18T00:00:36.718Z,100217.47
2022-10-18T00:03:06.574Z,100210.53
2022-10-18T00:05:35.214Z,100192.88
2022-10-18T00:08:03.640Z,100211.09
2022-10-18T00:10:32.421Z,100213.84
2022-10-18T00:13:01.221Z,100205.81
2022-10-18T00:15:29.680Z,100202.97
2022-10-18T00:17:58.141Z,100209.41
2022-10-18T00:20:28.052Z,100207.22
2022-10-18T00:22:56.500Z,100205.94
2022-10-18T00:25:24.990Z,100206.50
2022-10-18T00:27:53.956Z,100205.41
2022-10-18T00:30:22.382Z,100206.50
2022-10-18T00:32:50.805Z,100198.34
2022-10-18T00:35:19.409Z,100198.75
2022-10-18T00:37:49.242Z,100197.75
2022-10-18T00:40:17.829Z,100193.75
2022-10-18T00:42:46.335Z,100192.22
2022-10-18T00:45:19.711Z,100177.47
2022-10-18T00:47:51.802Z,100176.34
2022-10-18T00:50:21.914Z,100184.13
2022-10-18T00:52:55.002Z,100180.78
2022-10-18T00:55:23.785Z,100183.56
2022-10-18T01:00:28.393Z,100182.88
2022-10-18T01:02:57.233Z,100182.44
2022-10-18T01:05:26.730Z,100188.25
2022-10-18T01:08:15.481Z,100186.16
2022-10-18T01:10:51.404Z,100174.75
2022-10-18T01:13:36.430Z,100177.28
2022-10-18T01:16:13.499Z,100182.56
2022-10-18T01:18:47.963Z,100181.88
2022-10-18T01:21:34.455Z,100175.75
2022-10-18T01:24:39.409Z,100181.03
2022-10-18T01:27:33.637Z,100167.75
2022-10-18T01:30:32.965Z,100170.09
2022-10-18T01:33:06.941Z,100174.00
2022-10-18T01:35:40.977Z,100181.63
2022-10-18T01:38:14.261Z,100176.94
2022-10-18T01:40:45.144Z,100169.72
2022-10-18T01:43:15.962Z,100162.50
2022-10-18T01:45:44.517Z,100169.41
2022-10-18T01:48:15.410Z,100156.09
2022-10-18T01:50:43.880Z,100160.22
2022-10-18T01:53:31.312Z,100153.72
2022-10-18T01:56:19.562Z,100152.31
2022-10-18T01:58:58.239Z,100160.81
2022-10-18T02:01:41.063Z,100167.13
2022-10-18T02:04:20.622Z,100151.16
2022-10-18T02:06:56.249Z,100151.16
2022-10-18T02:09:34.883Z,100154.22
2022-10-18T02:12:04.903Z,100152.69
2022-10-18T02:14:34.342Z,100149.63
2022-10-18T02:17:07.201Z,100153.13
2022-10-18T02:19:42.089Z,100151.88
2022-10-18T02:22:14.022Z,100143.25
2022-10-18T02:24:47.539Z,100141.72
2022-10-18T02:27:16.233Z,100140.88
2022-10-18T02:29:45.595Z,100146.44
2022-10-18T02:32:21.854Z,100150.19
2022-10-18T02:35:09.089Z,100143.41
2022-10-18T02:37:40.363Z,100133.41
2022-10-18T02:40:11.540Z,100131.75
2022-10-18T02:42:43.602Z,100136.19
2022-10-18T02:45:12.926Z,100127.72
2022-10-18T02:47:41.327Z,100126.31
2022-10-18T02:50:11.796Z,100119.69
2022-10-18T02:52:40.501Z,100107.84
2022-10-18T02:55:10.005Z,100098.28
2022-10-18T02:57:39.122Z,100096.06
2022-10-18T03:00:08.865Z,100092.44
2022-10-18T03:02:37.333Z,100095.09
2022-10-18T03:05:06.488Z,100086.47
2022-10-18T03:07:36.334Z,100092.84
2022-10-18T03:10:05.307Z,100097.56
2022-10-18T03:12:33.814Z,100097.56
2022-10-18T03:15:02.283Z,100102.72
2022-10-18T03:17:30.985Z,100098.13
2022-10-18T03:19:59.717Z,100087.03
2022-10-18T03:24:59.315Z,100085.34
2022-10-18T03:27:27.708Z,100101.66
2022-10-18T03:29:56.113Z,100101.78
2022-10-18T03:32:24.689Z,100101.59
2022-10-18T03:34:53.089Z,100090.25
2022-10-18T03:37:21.548Z,100091.34
2022-10-18T03:39:50.087Z,100096.06
2022-10-18T03:42:19.891Z,100089.16
2022-10-18T03:44:48.364Z,100093.19
2022-10-18T03:47:17.010Z,100091.94
2022-10-18T03:49:45.448Z,100095.00
2022-10-18T03:52:13.873Z,100082.91
2022-10-18T03:54:42.388Z,100089.13
2022-10-18T03:57:10.778Z,100083.56
2022-10-18T03:59:40.809Z,100084.94
2022-10-18T04:02:09.497Z,100090.13
2022-10-18T04:04:37.970Z,100080.81
2022-10-18T04:07:06.401Z,100093.56
2022-10-18T04:09:34.875Z,100091.78
2022-10-18T04:12:03.323Z,100095.94
2022-10-18T04:14:31.749Z,100093.69
2022-10-18T04:17:01.648Z,100101.31
2022-10-18T04:19:30.089Z,100094.38
2022-10-18T04:21:58.515Z,100090.19
2022-10-18T04:24:26.966Z,100091.56
2022-10-18T04:26:55.432Z,100096.25
2022-10-18T04:29:24.107Z,100093.81
2022-10-18T04:31:52.594Z,100097.97
2022-10-18T04:34:22.498Z,100091.03
2022-10-18T04:36:51.377Z,100091.47
2022-10-18T04:39:19.908Z,100094.50
2022-10-18T04:41:48.744Z,100092.13
2022-10-18T04:44:17.291Z,100098.38
2022-10-18T04:46:45.762Z,100093.81
2022-10-18T04:49:14.558Z,100091.44
2022-10-18T04:51:44.399Z,100097.81
2022-10-18T04:54:12.864Z,100098.91
2022-10-18T04:56:41.312Z,100101.28
2022-10-18T04:59:09.745Z,100102.00
2022-10-18T05:04:55.197Z,100109.00
2022-10-18T05:07:25.353Z,100107.34
2022-10-18T05:09:53.824Z,100112.88
2022-10-18T05:12:22.440Z,100099.94
2022-10-18T05:14:50.850Z,100103.13
2022-10-18T05:17:19.438Z,100103.31
2022-10-18T05:19:47.942Z,100106.34
2022-10-18T05:22:16.367Z,100103.00
2022-10-18T05:24:46.206Z,100102.06
2022-10-18T05:27:15.149Z,100107.78
2022-10-18T05:29:43.543Z,100108.72
2022-10-18T05:32:11.961Z,100106.56
2022-10-18T05:34:40.463Z,100115.25
2022-10-18T05:37:08.915Z,100110.84
2022-10-18T05:39:38.412Z,100111.34
2022-10-18T05:42:09.040Z,100114.44
2022-10-18T05:44:37.464Z,100107.94
2022-10-18T05:47:05.999Z,100120.09
2022-10-18T05:49:34.548Z,100115.31
2022-10-18T05:52:03.069Z,100106.63
2022-10-18T05:54:32.025Z,100100.31
2022-10-18T05:57:00.463Z,100099.81
2022-10-18T05:59:30.343Z,100100.91
2022-10-18T06:01:58.746Z,100068.97
2022-10-18T06:04:27.592Z,100108.69
2022-10-18T06:06:56.321Z,100112.50
2022-10-18T06:09:24.960Z,100113.63
2022-10-18T06:11:53.578Z,100122.88
2022-10-18T06:14:22.010Z,100113.97
2022-10-18T06:16:51.884Z,100115.50
2022-10-18T06:19:20.477Z,100113.97
2022-10-18T06:21:48.920Z,100122.34
2022-10-18T06:24:18.490Z,100118.03
2022-10-18T06:26:46.962Z,100109.09
2022-10-18T06:29:15.581Z,100104.69
2022-10-18T06:31:44.043Z,100115.59
2022-10-18T06:34:13.905Z,100115.19
2022-10-18T06:36:42.317Z,100099.41
2022-10-18T06:39:11.680Z,100119.19
2022-10-18T06:41:40.111Z,100123.66
2022-10-18T06:44:20.982Z,100116.22
2022-10-18T06:46:50.666Z,100110.25
2022-10-18T06:49:21.013Z,100121.94
2022-10-18T06:51:49.434Z,100123.66
2022-10-18T06:54:18.975Z,100107.03
2022-10-18T06:56:47.877Z,100123.22
2022-10-18T06:59:16.376Z,100135.28
2022-10-18T07:01:44.874Z,100138.91
2022-10-18T07:04:13.282Z,100136.03
2022-10-18T07:06:43.108Z,100127.81
2022-10-18T07:09:11.657Z,100129.94
2022-10-18T07:11:40.528Z,100134.09
2022-10-18T07:14:12.614Z,100131.44
2022-10-18T07:16:43.850Z,100141.81
2022-10-18T07:19:12.336Z,100142.56
2022-10-18T07:21:42.188Z,100136.53
2022-10-18T07:24:10.711Z,100139.66
2022-10-18T07:26:39.126Z,100152.00
2022-10-18T07:29:09.955Z,100141.75
2022-10-18T07:31:39.404Z,100158.16
2022-10-18T07:34:08.686Z,100148.13
2022-10-18T07:36:37.249Z,100143.34
2022-10-18T07:39:07.658Z,100138.72
2022-10-18T07:41:36.414Z,100151.06
2022-10-18T07:44:05.872Z,100156.34
2022-10-18T07:46:34.616Z,100153.47
2022-10-18T07:49:03.036Z,100169.31
2022-10-18T07:51:32.919Z,100169.50
2022-10-18T07:54:01.556Z,100164.50
2022-10-18T07:56:31.383Z,100161.53
2022-10-18T07:58:59.873Z,100166.94
2022-10-18T08:01:28.388Z,100158.31
2022-10-18T08:03:56.864Z,100147.72
2022-10-18T08:06:25.314Z,100155.63
2022-10-18T08:08:53.790Z,100152.75
2022-10-18T08:11:24.026Z,100148.28
2022-10-18T08:13:55.413Z,100140.84
2022-10-18T08:16:26.397Z,100143.97
2022-10-18T08:18:55.262Z,100132.88
2022-10-18T08:21:23.715Z,100132.72
2022-10-18T08:23:53.863Z,100127.13
2022-10-18T08:26:23.681Z,100110.97
2022-10-18T08:28:58.435Z,100102.59
2022-10-18T08:31:38.276Z,100083.16
2022-10-18T08:34:06.690Z,100105.50
2022-10-18T08:36:35.162Z,100113.09
2022-10-18T08:39:04.160Z,100136.22
2022-10-18T08:41:49.953Z,100119.50
2022-10-18T08:44:23.954Z,100136.31
2022-10-18T08:46:56.591Z,100139.88
2022-10-18T08:49:29.730Z,100159.63
2022-10-18T08:51:59.318Z,100156.94
2022-10-18T08:54:34.007Z,100168.59
2022-10-18T08:57:08.166Z,100163.06
2022-10-18T08:59:41.473Z,100178.06
2022-10-18T09:02:21.274Z,100177.88
2022-10-18T09:04:56.503Z,100183.25
2022-10-18T09:07:45.213Z,100188.84
2022-10-18T09:10:22.785Z,100193.56
2022-10-18T09:13:03.338Z,100189.16
2022-10-18T09:15:42.928Z,100202.69
2022-10-18T09:18:29.439Z,100208.97
2022-10-18T09:21:00.119Z,100216.31
2022-10-18T09:23:40.508Z,100211.31
2022-10-18T09:26:15.676Z,100217.50
2022-10-18T09:28:55.659Z,100223.53
2022-10-18T09:31:32.750Z,100203.84
2022-10-18T09:34:05.780Z,100204.00
2022-10-18T09:36:37.945Z,100206.31
2022-10-18T09:39:13.503Z,100178.63
2022-10-18T09:41:49.091Z,100199.81
2022-10-18T09:44:23.284Z,100180.63
2022-10-18T09:46:58.126Z,100199.13
2022-10-18T09:49:31.194Z,100190.50
2022-10-18T09:52:05.256Z,100196.03
2022-10-18T09:54:39.143Z,100198.94
2022-10-18T09:57:13.784Z,100208.66
2022-10-18T09:59:43.603Z,100188.81
2022-10-18T10:02:16.918Z,100168.53
2022-10-18T10:04:45.794Z,100168.28
2022-10-18T10:07:16.003Z,100166.50
2022-10-18T10:09:48.183Z,100164.44
2022-10-18T10:12:31.794Z,100161.94
2022-10-18T10:15:14.469Z,100158.72
2022-10-18T10:17:44.987Z,100165.31
2022-10-18T10:20:20.288Z,100179.44
2022-10-18T10:22:50.286Z,100180.63
2022-10-18T10:25:27.113Z,100189.22
2022-10-18T10:27:55.949Z,100174.41
2022-10-18T10:30:28.267Z,100174.38
2022-10-18T10:32:58.710Z,100176.97
2022-10-18T10:35:52.455Z,100183.13
2022-10-18T10:38:26.124Z,100209.00
2022-10-18T10:40:55.333Z,100200.19
2022-10-18T10:43:42.037Z,100187.97
2022-10-18T10:46:13.326Z,100195.41
2022-10-18T10:48:49.295Z,100205.16
2022-10-18T10:51:20.253Z,100185.47
2022-10-18T10:53:53.046Z,100201.66
2022-10-18T10:56:27.562Z,100190.13
2022-10-18T10:58:58.748Z,100190.59
2022-10-18T11:01:31.024Z,100203.59
2022-10-18T11:04:03.478Z,100202.09
2022-10-18T11:07:00.066Z,100193.59
2022-10-18T11:09:51.644Z,100210.84
2022-10-18T11:12:25.937Z,100196.06
2022-10-18T11:15:13.213Z,100186.63
2022-10-18T11:17:45.293Z,100167.19
2022-10-18T11:20:24.790Z,100175.59
2022-10-18T11:23:07.399Z,100180.22
2022-10-18T11:25:51.184Z,100172.81
2022-10-18T11:28:31.136Z,100180.16
2022-10-18T11:31:09.514Z,100176.41
2022-10-18T11:34:08.327Z,100165.59
2022-10-18T11:36:56.248Z,100177.00
2022-10-18T11:39:47.942Z,100169.66
2022-10-18T11:42:24.539Z,100154.13
2022-10-18T11:45:00.352Z,100144.59
2022-10-18T11:47:38.434Z,100158.63
2022-10-18T11:50:18.402Z,100149.31
2022-10-18T11:52:57.364Z,100156.84
2022-10-18T11:55:39.215Z,100147.25
2022-10-18T11:58:24.534Z,100138.88
2022-10-18T12:00:58.193Z,100145.88
2022-10-18T12:03:39.495Z,100124.88
2022-10-18T12:06:18.112Z,100137.63
2022-10-18T12:08:51.327Z,100144.50
2022-10-18T12:11:23.823Z,100145.16
2022-10-18T12:13:57.874Z,100135.63
2022-10-18T12:16:49.848Z,100115.63
2022-10-18T12:19:25.454Z,100140.97
2022-10-18T12:21:57.703Z,100138.50
2022-10-18T12:24:31.623Z,100130.66
2022-10-18T12:27:02.381Z,100127.72
2022-10-18T12:29:38.467Z,100132.69
2022-10-18T12:32:11.133Z,100133.50
2022-10-18T12:34:45.202Z,100115.16
2022-10-18T12:37:39.883Z,100100.03
2022-10-18T12:40:20.241Z,100092.25
2022-10-18T12:42:52.360Z,100092.31
2022-10-18T12:45:30.398Z,100091.84
2022-10-18T12:48:01.339Z,100077.88
2022-10-18T12:50:36.184Z,100068.75
2022-10-18T12:53:08.841Z,100072.41
2022-10-18T12:55:40.387Z,100083.53
2022-10-18T12:58:27.371Z,100090.81
2022-10-18T13:01:02.346Z,100084.81
2022-10-18T13:03:51.126Z,100083.81
2022-10-18T13:06:20.702Z,100087.84
2022-10-18T13:08:51.242Z,100074.81
2022-10-18T13:11:36.434Z,100079.53
2022-10-18T13:14:34.940Z,100079.38
2022-10-18T13:17:13.859Z,100062.22
2022-10-18T13:20:20.446Z,100077.03
2022-10-18T13:23:05.378Z,100069.34
2022-10-18T13:25:48.426Z,100074.88
2022-10-18T13:28:28.647Z,100080.41
2022-10-18T13:31:04.368Z,100067.38
2022-10-18T13:33:35.899Z,100066.09
2022-10-18T13:36:07.947Z,100059.28
2022-10-18T13:39:02.284Z,100053.78
2022-10-18T13:41:35.228Z,100055.19
2022-10-18T13:44:30.594Z,100045.41
2022-10-18T13:47:35.678Z,100033.94
2022-10-18T13:50:34.264Z,100036.22
2022-10-18T13:53:20.289Z,100032.78
2022-10-18T13:56:13.070Z,100032.69
2022-10-18T13:58:49.137Z,100027.53
2022-10-18T14:01:42.450Z,100028.19
2022-10-18T14:04:40.577Z,100037.09
2022-10-18T14:07:11.814Z,100029.97
2022-10-18T14:09:48.858Z,100043.72
2022-10-18T14:12:28.804Z,100045.31
2022-10-18T14:15:03.473Z,100059.97
2022-10-18T14:17:41.089Z,100052.16
2022-10-18T14:20:20.058Z,100039.09
2022-10-18T14:22:54.579Z,100028.03
2022-10-18T14:25:27.538Z,100032.47
2022-10-18T14:28:13.400Z,100026.88
2022-10-18T14:30:56.040Z,100024.34
2022-10-18T14:33:34.140Z,99948.63
2022-10-18T14:36:12.944Z,100019.03
2022-10-18T14:38:50.071Z,100022.97
2022-10-18T14:41:23.236Z,100030.22
2022-10-18T14:43:53.313Z,100023.59
2022-10-18T14:46:27.221Z,100017.38
2022-10-18T14:49:01.011Z,100032.78
2022-10-18T14:51:34.377Z,100033.56
2022-10-18T14:54:03.280Z,100012.53
2022-10-18T14:56:37.674Z,99984.97
2022-10-18T14:59:12.893Z,99979.81
2022-10-18T15:01:41.464Z,100005.88
2022-10-18T15:04:12.793Z,100053.78
2022-10-18T15:06:45.034Z,100051.34
2022-10-18T15:09:17.372Z,100098.56
2022-10-18T15:11:46.631Z,100108.59
2022-10-18T15:14:18.679Z,100125.72
2022-10-18T15:16:48.318Z,100088.72
2022-10-18T15:19:31.684Z,100080.84
2022-10-18T15:25:12.659Z,100090.16
2022-10-18T15:27:45.193Z,100073.25
2022-10-18T15:30:21.015Z,100101.91
2022-10-18T15:32:52.349Z,100178.09
2022-10-18T15:35:26.775Z,100208.22
2022-10-18T15:37:57.000Z,100216.44
2022-10-18T15:40:37.740Z,100233.00
2022-10-18T15:43:27.669Z,100276.78
2022-10-18T15:46:01.615Z,100298.69
2022-10-18T15:48:36.909Z,100294.03
2022-10-18T15:51:07.892Z,100287.38
2022-10-18T15:53:47.180Z,100263.50
2022-10-18T15:56:31.064Z,100253.56
2022-10-18T15:59:03.550Z,100259.22
2022-10-18T16:01:36.724Z,100266.34
2022-10-18T16:04:15.058Z,100259.22
2022-10-18T16:06:45.798Z,100262.53
2022-10-18T16:09:17.849Z,100289.72
2022-10-18T16:11:47.363Z,100285.41
2022-10-18T16:14:15.811Z,100280.94
2022-10-18T16:16:44.451Z,100292.72
2022-10-18T16:19:15.778Z,100273.16
2022-10-18T16:21:46.150Z,100283.44
2022-10-18T16:24:14.787Z,100284.09
2022-10-18T16:26:43.312Z,100277.97
2022-10-18T16:29:14.637Z,100273.22
2022-10-18T16:31:43.523Z,100252.13
2022-10-18T16:34:12.002Z,100264.41
2022-10-18T16:36:40.434Z,100259.44
2022-10-18T16:39:16.995Z,100244.00
2022-10-18T16:41:45.704Z,100260.59
2022-10-18T16:44:15.275Z,100257.94
2022-10-18T16:46:43.787Z,100250.28
2022-10-18T16:51:53.246Z,100244.63
2022-10-18T16:54:23.625Z,100254.63
2022-10-18T16:56:52.090Z,100252.28
2022-10-18T16:59:25.484Z,100247.97
2022-10-18T17:01:53.957Z,100248.81
2022-10-18T17:04:22.433Z,100232.16
2022-10-18T17:06:51.069Z,100243.47
2022-10-18T17:09:19.525Z,100227.34
2022-10-18T17:11:49.344Z,100239.97
2022-10-18T17:14:17.950Z,100245.66
2022-10-18T17:16:50.072Z,100236.53
2022-10-18T17:19:22.321Z,100236.69
2022-10-18T17:21:50.743Z,100246.13
2022-10-18T17:24:19.417Z,100238.19
2022-10-18T17:26:49.323Z,100246.81
2022-10-18T17:29:17.741Z,100246.97
2022-10-18T17:31:46.120Z,100229.72
2022-10-18T17:34:21.158Z,100243.84
2022-10-18T17:36:49.988Z,100246.31
2022-10-18T17:39:18.505Z,100252.59
2022-10-18T17:41:48.363Z,100247.25
2022-10-18T17:44:16.781Z,100239.94
2022-10-18T17:46:45.230Z,100246.09
2022-10-18T17:49:14.237Z,100244.09
2022-10-18T17:51:43.034Z,100243.91
2022-10-18T17:54:11.546Z,100237.91
2022-10-18T17:56:41.362Z,100234.56
2022-10-18T17:59:11.489Z,100244.00
2022-10-18T18:01:40.711Z,100241.41
2022-10-18T18:04:09.207Z,100248.03
2022-10-18T18:06:39.387Z,100237.75
2022-10-18T18:09:11.587Z,100241.06
2022-10-18T18:11:42.179Z,100234.34
2022-10-18T18:14:12.926Z,100243.63
2022-10-18T18:16:43.597Z,100248.16
2022-10-18T18:19:12.601Z,100237.19
2022-10-18T18:21:42.994Z,100246.16
2022-10-18T18:24:11.771Z,100256.56
2022-10-18T18:26:42.030Z,100249.00
2022-10-18T18:29:14.333Z,100244.19
2022-10-18T18:31:44.010Z,100265.59
2022-10-18T18:34:13.009Z,100259.38
2022-10-18T18:36:41.914Z,100269.69
2022-10-18T18:39:17.349Z,100274.34
2022-10-18T18:41:46.090Z,100265.38
2022-10-18T18:44:15.934Z,100264.91
2022-10-18T18:46:44.482Z,100260.56
2022-10-18T18:49:13.746Z,100250.19
2022-10-18T18:51:42.973Z,100254.13
2022-10-18T18:54:14.019Z,100262.78
2022-10-18T18:56:43.285Z,100268.63
2022-10-18T18:59:14.265Z,100258.97
2022-10-18T19:01:44.432Z,100280.19
2022-10-18T19:04:13.526Z,100271.50
2022-10-18T19:06:44.288Z,100270.22
2022-10-18T19:09:21.740Z,100280.97
2022-10-18T19:11:52.700Z,100265.59
2022-10-18T19:17:02.620Z,100277.88
2022-10-18T19:19:32.284Z,100266.22
2022-10-18T19:22:03.743Z,100249.59
2022-10-18T19:24:32.510Z,100249.28
2022-10-18T19:27:02.634Z,100243.84
2022-10-18T19:29:33.142Z,100249.34
2022-10-18T19:32:04.964Z,100239.97
2022-10-18T19:34:35.010Z,100234.94
2022-10-18T19:37:03.548Z,100259.53
2022-10-18T19:39:33.991Z,100264.72
2022-10-18T19:42:05.902Z,100264.59
2022-10-18T19:44:36.155Z,100279.88
2022-10-18T19:47:06.992Z,100284.16
2022-10-18T19:49:35.473Z,100267.50
2022-10-18T19:52:03.981Z,100265.88
2022-10-18T19:54:32.481Z,100260.19
2022-10-18T19:57:00.941Z,100246.56
2022-10-18T19:59:30.025Z,100242.75
2022-10-18T20:02:00.672Z,100236.28
2022-10-18T20:04:34.314Z,100230.13
2022-10-18T20:07:03.773Z,100236.00
2022-10-18T20:09:32.440Z,100233.94
2022-10-18T20:12:00.890Z,100224.28
2022-10-18T20:14:29.367Z,100224.91
2022-10-18T20:16:57.779Z,100233.69
2022-10-18T20:19:26.189Z,100211.56
2022-10-18T20:21:58.118Z,100221.59
2022-10-18T20:24:26.830Z,100247.94
2022-10-18T20:26:55.233Z,100237.28
2022-10-18T20:29:25.602Z,100239.63
2022-10-18T20:31:55.680Z,100238.34
2022-10-18T20:34:26.206Z,100236.00
2022-10-18T20:36:59.659Z,100242.53
2022-10-18T20:39:28.335Z,100235.25
2022-10-18T20:41:57.322Z,100233.69
2022-10-18T20:44:27.052Z,100226.69
2022-10-18T20:46:55.510Z,100233.59
2022-10-18T20:49:23.948Z,100230.88
2022-10-18T20:51:52.387Z,100219.72
2022-10-18T20:54:22.980Z,100238.13
2022-10-18T20:56:51.403Z,100232.19
2022-10-18T20:59:19.817Z,100216.63
2022-10-18T21:01:48.722Z,100209.28
2022-10-18T21:04:17.169Z,100194.50
2022-10-18T21:06:45.632Z,100212.19
2022-10-18T21:09:16.539Z,100199.31
2022-10-18T21:11:47.923Z,100200.47
2022-10-18T21:14:18.808Z,100190.63
2022-10-18T21:16:47.873Z,100190.34
2022-10-18T21:19:18.571Z,100185.34
2022-10-18T21:21:49.671Z,100193.97
2022-10-18T21:24:19.357Z,100185.06
2022-10-18T21:26:49.361Z,100186.06
2022-10-18T21:29:22.335Z,100172.69
2022-10-18T21:31:54.798Z,100159.88
2022-10-18T21:34:23.453Z,100164.53
2022-10-18T21:36:51.935Z,100149.59
2022-10-18T21:41:57.064Z,100150.97
2022-10-18T21:44:25.684Z,100148.06
2022-10-18T21:46:55.153Z,100153.03
2022-10-18T21:49:25.211Z,100152.72
2022-10-18T21:51:53.729Z,100158.00
2022-10-18T21:54:46.576Z,100124.28
2022-10-18T21:57:17.428Z,100163.25
2022-10-18T21:59:45.910Z,100157.63
2022-10-18T22:02:14.334Z,100147.13
2022-10-18T22:04:42.936Z,100142.47
2022-10-18T22:07:11.579Z,100121.72
2022-10-18T22:09:40.018Z,100133.97
2022-10-18T22:12:10.853Z,100138.16
2022-10-18T22:14:43.696Z,100134.84
2022-10-18T22:17:13.726Z,100132.56
2022-10-18T22:20:07.978Z,100099.72
2022-10-18T22:22:36.420Z,100108.41
2022-10-18T22:25:05.376Z,100102.50
2022-10-18T22:28:38.471Z,100071.31
2022-10-18T22:31:15.874Z,100104.31
2022-10-18T22:33:45.018Z,100086.16
2022-10-18T22:36:13.563Z,100064.41
2022-10-18T22:38:51.364Z,100034.94
2022-10-18T22:41:20.189Z,100017.03
2022-10-18T22:43:48.845Z,100030.09
2022-10-18T22:46:19.146Z,100016.34
2022-10-18T22:48:48.280Z,100000.38
2022-10-18T22:51:16.860Z,99991.38
2022-10-18T22:53:47.037Z,99980.25
2022-10-18T22:56:17.989Z,99977.75
2022-10-18T22:58:48.119Z,99972.00
2022-10-18T23:01:20.109Z,99964.28
2022-10-18T23:03:53.111Z,99936.94
2022-10-18T23:06:24.916Z,99952.50
2022-10-18T23:08:55.918Z,99948.50
2022-10-18T23:11:27.713Z,99936.38
2022-10-18T23:13:56.224Z,99916.31
2022-10-18T23:16:26.469Z,99906.59
2022-10-18T23:18:56.545Z,99912.06
2022-10-18T23:21:26.361Z,99899.78
2022-10-18T23:23:56.788Z,99893.81
2022-10-18T23:26:28.217Z,99892.84
2022-10-18T23:28:57.110Z,99904.16
2022-10-18T23:31:29.379Z,99897.88
2022-10-18T23:34:00.318Z,99891.59
2022-10-18T23:36:29.133Z,99887.53
2022-10-18T23:38:57.784Z,99893.03
2022-10-18T23:41:27.159Z,99879.59
2022-10-18T23:43:55.910Z,99887.75
2022-10-18T23:46:24.456Z,99881.13
2022-10-18T23:52:13.151Z,99896.69
2022-10-18T23:54:48.982Z,99900.00
2022-10-18T23:57:17.585Z,99901.66
2022-10-18T23:59:46.377Z,99900.47
